sensor_id;sensor_type;location;lat;lon;timestamp;P1;durP1;ratioP1;P2;durP2;ratioP2
8538;SDS011;4307;53.868;11.680;2022-08-19T00:00:34;23.70;;;18.30;;
8538;SDS011;4307;53.868;11.680;2022-08-19T00:03:02;25.53;;;19.30;;
8538;SDS011;4307;53.868;11.680;2022-08-19T00:05:30;29.03;;;23.00;;
8538;SDS011;4307;53.868;11.680;2022-08-19T00:07:57;28.00;;;22.47;;
8538;SDS011;4307;53.868;11.680;2022-08-19T00:10:24;29.23;;;24.43;;
8538;SDS011;4307;53.868;11.680;2022-08-19T00:12:50;31.17;;;24.37;;
8538;SDS011;4307;53.868;11.680;2022-08-19T00:15:19;37.50;;;26.53;;
8538;SDS011;4307;53.868;11.680;2022-08-19T00:17:48;43.83;;;28.27;;
8538;SDS011;4307;53.868;11.680;2022-08-19T00:20:17;39.07;;;29.63;;
8538;SDS011;4307;53.868;11.680;2022-08-19T00:22:46;36.67;;;27.27;;
8538;SDS011;4307;53.868;11.680;2022-08-19T00:25:13;46.43;;;32.07;;
8538;SDS011;4307;53.868;11.680;2022-08-19T00:27:41;38.73;;;31.87;;
8538;SDS011;4307;53.868;11.680;2022-08-19T00:30:08;40.17;;;31.53;;
8538;SDS011;4307;53.868;11.680;2022-08-19T00:32:36;38.77;;;31.00;;
8538;SDS011;4307;53.868;11.680;2022-08-19T00:35:05;47.73;;;30.97;;
8538;SDS011;4307;53.868;11.680;2022-08-19T00:37:34;39.60;;;29.53;;
8538;SDS011;4307;53.868;11.680;2022-08-19T00:40:02;32.37;;;27.03;;
8538;SDS011;4307;53.868;11.680;2022-08-19T00:42:30;35.80;;;28.77;;
8538;SDS011;4307;53.868;11.680;2022-08-19T00:44:57;36.67;;;27.90;;
8538;SDS011;4307;53.868;11.680;2022-08-19T00:47:24;38.30;;;28.73;;
8538;SDS011;4307;53.868;11.680;2022-08-19T00:49:52;37.13;;;27.90;;
8538;SDS011;4307;53.868;11.680;2022-08-19T00:52:22;34.67;;;27.13;;
8538;SDS011;4307;53.868;11.680;2022-08-19T00:54:55;37.90;;;27.63;;
8538;SDS011;4307;53.868;11.680;2022-08-19T00:57:26;40.63;;;28.37;;
8538;SDS011;4307;53.868;11.680;2022-08-19T00:59:56;41.73;;;27.63;;
8538;SDS011;4307;53.868;11.680;2022-08-19T01:02:25;39.07;;;29.07;;
8538;SDS011;4307;53.868;11.680;2022-08-19T01:04:52;40.20;;;29.97;;
8538;SDS011;4307;53.868;11.680;2022-08-19T01:07:19;36.40;;;28.00;;
8538;SDS011;4307;53.868;11.680;2022-08-19T01:09:46;36.83;;;29.17;;
8538;SDS011;4307;53.868;11.680;2022-08-19T01:12:14;38.37;;;29.33;;
8538;SDS011;4307;53.868;11.680;2022-08-19T01:14:41;37.70;;;29.57;;
8538;SDS011;4307;53.868;11.680;2022-08-19T01:17:08;39.87;;;30.10;;
8538;SDS011;4307;53.868;11.680;2022-08-19T01:19:37;37.13;;;28.27;;
8538;SDS011;4307;53.868;11.680;2022-08-19T01:22:07;40.17;;;29.73;;
8538;SDS011;4307;53.868;11.680;2022-08-19T01:24:39;41.80;;;29.10;;
8538;SDS011;4307;53.868;11.680;2022-08-19T01:27:06;45.43;;;29.17;;
8538;SDS011;4307;53.868;11.680;2022-08-19T01:29:34;40.47;;;29.63;;
8538;SDS011;4307;53.868;11.680;2022-08-19T01:32:04;36.47;;;29.07;;
8538;SDS011;4307;53.868;11.680;2022-08-19T01:34:32;40.47;;;30.37;;
8538;SDS011;4307;53.868;11.680;2022-08-19T01:36:59;41.53;;;30.70;;
8538;SDS011;4307;53.868;11.680;2022-08-19T01:39:27;41.53;;;30.30;;
8538;SDS011;4307;53.868;11.680;2022-08-19T01:41:55;42.17;;;31.30;;
8538;SDS011;4307;53.868;11.680;2022-08-19T01:44:22;40.63;;;30.33;;
8538;SDS011;4307;53.868;11.680;2022-08-19T01:46:50;39.90;;;30.00;;
8538;SDS011;4307;53.868;11.680;2022-08-19T01:49:18;39.50;;;30.07;;
8538;SDS011;4307;53.868;11.680;2022-08-19T01:51:47;40.20;;;30.77;;
8538;SDS011;4307;53.868;11.680;2022-08-19T01:54:14;36.73;;;29.80;;
8538;SDS011;4307;53.868;11.680;2022-08-19T01:56:42;42.47;;;30.53;;
8538;SDS011;4307;53.868;11.680;2022-08-19T01:59:12;38.33;;;28.90;;
8538;SDS011;4307;53.868;11.680;2022-08-19T02:01:40;42.10;;;30.37;;
8538;SDS011;4307;53.868;11.680;2022-08-19T02:04:07;38.97;;;31.20;;
8538;SDS011;4307;53.868;11.680;2022-08-19T02:06:33;40.07;;;29.77;;
8538;SDS011;4307;53.868;11.680;2022-08-19T02:09:00;38.93;;;29.90;;
8538;SDS011;4307;53.868;11.680;2022-08-19T02:11:29;40.07;;;30.63;;
8538;SDS011;4307;53.868;11.680;2022-08-19T02:13:58;39.50;;;29.93;;
8538;SDS011;4307;53.868;11.680;2022-08-19T02:16:28;43.87;;;31.03;;
8538;SDS011;4307;53.868;11.680;2022-08-19T02:18:55;39.63;;;29.17;;
8538;SDS011;4307;53.868;11.680;2022-08-19T02:21:22;44.90;;;31.23;;
8538;SDS011;4307;53.868;11.680;2022-08-19T02:23:49;41.17;;;30.23;;
8538;SDS011;4307;53.868;11.680;2022-08-19T02:26:17;40.77;;;30.30;;
8538;SDS011;4307;53.868;11.680;2022-08-19T02:28:44;37.43;;;29.80;;
8538;SDS011;4307;53.868;11.680;2022-08-19T02:31:12;43.47;;;29.00;;
8538;SDS011;4307;53.868;11.680;2022-08-19T02:33:43;43.73;;;30.57;;
8538;SDS011;4307;53.868;11.680;2022-08-19T02:36:11;42.47;;;29.43;;
8538;SDS011;4307;53.868;11.680;2022-08-19T02:38:39;38.53;;;29.63;;
8538;SDS011;4307;53.868;11.680;2022-08-19T02:41:07;41.70;;;30.33;;
8538;SDS011;4307;53.868;11.680;2022-08-19T02:43:39;41.33;;;30.23;;
8538;SDS011;4307;53.868;11.680;2022-08-19T02:46:11;41.93;;;29.33;;
8538;SDS011;4307;53.868;11.680;2022-08-19T02:48:39;44.87;;;29.30;;
8538;SDS011;4307;53.868;11.680;2022-08-19T02:51:07;39.17;;;28.77;;
8538;SDS011;4307;53.868;11.680;2022-08-19T02:53:34;38.90;;;29.20;;
8538;SDS011;4307;53.868;11.680;2022-08-19T02:56:05;43.60;;;29.10;;
8538;SDS011;4307;53.868;11.680;2022-08-19T02:58:32;42.53;;;27.40;;
8538;SDS011;4307;53.868;11.680;2022-08-19T03:00:59;45.57;;;28.43;;
8538;SDS011;4307;53.868;11.680;2022-08-19T03:03:26;37.63;;;27.40;;
8538;SDS011;4307;53.868;11.680;2022-08-19T03:06:02;42.43;;;28.37;;
8538;SDS011;4307;53.868;11.680;2022-08-19T03:08:31;43.90;;;27.73;;
8538;SDS011;4307;53.868;11.680;2022-08-19T03:10:58;44.00;;;29.20;;
8538;SDS011;4307;53.868;11.680;2022-08-19T03:13:25;39.47;;;28.73;;
8538;SDS011;4307;53.868;11.680;2022-08-19T03:15:53;44.07;;;30.33;;
8538;SDS011;4307;53.868;11.680;2022-08-19T03:18:19;43.00;;;30.47;;
8538;SDS011;4307;53.868;11.680;2022-08-19T03:20:48;42.00;;;31.20;;
8538;SDS011;4307;53.868;11.680;2022-08-19T03:23:17;44.40;;;30.77;;
8538;SDS011;4307;53.868;11.680;2022-08-19T03:25:46;48.13;;;31.83;;
8538;SDS011;4307;53.868;11.680;2022-08-19T03:28:14;40.63;;;30.00;;
8538;SDS011;4307;53.868;11.680;2022-08-19T03:30:42;46.23;;;31.77;;
8538;SDS011;4307;53.868;11.680;2022-08-19T03:33:21;44.40;;;30.33;;
8538;SDS011;4307;53.868;11.680;2022-08-19T03:35:58;41.07;;;28.87;;
8538;SDS011;4307;53.868;11.680;2022-08-19T03:38:26;40.17;;;28.40;;
8538;SDS011;4307;53.868;11.680;2022-08-19T03:40:54;42.53;;;30.03;;
8538;SDS011;4307;53.868;11.680;2022-08-19T03:43:20;45.90;;;32.57;;
8538;SDS011;4307;53.868;11.680;2022-08-19T03:45:47;49.30;;;31.23;;
8538;SDS011;4307;53.868;11.680;2022-08-19T03:48:14;48.07;;;33.50;;
8538;SDS011;4307;53.868;11.680;2022-08-19T03:50:41;48.07;;;31.93;;
8538;SDS011;4307;53.868;11.680;2022-08-19T03:53:08;42.47;;;29.43;;
8538;SDS011;4307;53.868;11.680;2022-08-19T03:55:39;39.87;;;28.80;;
8538;SDS011;4307;53.868;11.680;2022-08-19T03:58:07;45.67;;;29.53;;
8538;SDS011;4307;53.868;11.680;2022-08-19T04:00:35;41.97;;;30.33;;
8538;SDS011;4307;53.868;11.680;2022-08-19T04:03:02;41.17;;;29.90;;
8538;SDS011;4307;53.868;11.680;2022-08-19T04:05:29;43.27;;;29.60;;
8538;SDS011;4307;53.868;11.680;2022-08-19T04:07:55;45.40;;;30.33;;
8538;SDS011;4307;53.868;11.680;2022-08-19T04:10:23;48.10;;;31.03;;
8538;SDS011;4307;53.868;11.680;2022-08-19T04:12:50;44.47;;;30.07;;
8538;SDS011;4307;53.868;11.680;2022-08-19T04:15:18;47.97;;;29.13;;
8538;SDS011;4307;53.868;11.680;2022-08-19T04:17:45;45.20;;;29.57;;
8538;SDS011;4307;53.868;11.680;2022-08-19T04:20:12;44.70;;;29.27;;
8538;SDS011;4307;53.868;11.680;2022-08-19T04:22:39;42.67;;;29.43;;
8538;SDS011;4307;53.868;11.680;2022-08-19T04:25:06;40.13;;;29.27;;
8538;SDS011;4307;53.868;11.680;2022-08-19T04:27:32;43.40;;;30.10;;
8538;SDS011;4307;53.868;11.680;2022-08-19T04:29:59;42.73;;;29.47;;
8538;SDS011;4307;53.868;11.680;2022-08-19T04:32:27;41.40;;;30.10;;
8538;SDS011;4307;53.868;11.680;2022-08-19T04:34:56;41.23;;;30.87;;
8538;SDS011;4307;53.868;11.680;2022-08-19T04:37:24;48.07;;;31.17;;
8538;SDS011;4307;53.868;11.680;2022-08-19T04:39:51;44.90;;;31.00;;
8538;SDS011;4307;53.868;11.680;2022-08-19T04:42:36;49.03;;;32.33;;
8538;SDS011;4307;53.868;11.680;2022-08-19T04:45:05;46.73;;;32.30;;
8538;SDS011;4307;53.868;11.680;2022-08-19T04:47:36;43.07;;;30.17;;
8538;SDS011;4307;53.868;11.680;2022-08-19T04:50:03;44.23;;;30.87;;
8538;SDS011;4307;53.868;11.680;2022-08-19T04:52:32;45.67;;;31.17;;
8538;SDS011;4307;53.868;11.680;2022-08-19T04:54:59;45.27;;;29.93;;
8538;SDS011;4307;53.868;11.680;2022-08-19T04:57:25;40.57;;;29.53;;
8538;SDS011;4307;53.868;11.680;2022-08-19T04:59:53;44.67;;;28.53;;
8538;SDS011;4307;53.868;11.680;2022-08-19T05:02:20;41.37;;;29.20;;
8538;SDS011;4307;53.868;11.680;2022-08-19T05:04:50;43.17;;;29.97;;
8538;SDS011;4307;53.868;11.680;2022-08-19T05:07:22;46.53;;;30.37;;
8538;SDS011;4307;53.868;11.680;2022-08-19T05:09:48;40.30;;;29.27;;
8538;SDS011;4307;53.868;11.680;2022-08-19T05:12:15;45.77;;;29.97;;
8538;SDS011;4307;53.868;11.680;2022-08-19T05:14:42;49.90;;;30.90;;
8538;SDS011;4307;53.868;11.680;2022-08-19T05:17:10;47.77;;;31.90;;
8538;SDS011;4307;53.868;11.680;2022-08-19T05:19:37;44.90;;;31.33;;
8538;SDS011;4307;53.868;11.680;2022-08-19T05:22:23;46.20;;;30.20;;
8538;SDS011;4307;53.868;11.680;2022-08-19T05:25:01;44.50;;;30.53;;
8538;SDS011;4307;53.868;11.680;2022-08-19T05:27:30;46.30;;;30.97;;
8538;SDS011;4307;53.868;11.680;2022-08-19T05:29:57;47.37;;;31.17;;
8538;SDS011;4307;53.868;11.680;2022-08-19T05:32:23;45.50;;;31.63;;
8538;SDS011;4307;53.868;11.680;2022-08-19T05:34:50;44.37;;;28.63;;
8538;SDS011;4307;53.868;11.680;2022-08-19T05:37:17;44.03;;;28.30;;
8538;SDS011;4307;53.868;11.680;2022-08-19T05:39:45;44.23;;;29.10;;
8538;SDS011;4307;53.868;11.680;2022-08-19T05:42:12;47.83;;;29.00;;
8538;SDS011;4307;53.868;11.680;2022-08-19T05:44:40;46.37;;;30.80;;
8538;SDS011;4307;53.868;11.680;2022-08-19T05:47:09;44.90;;;30.23;;
8538;SDS011;4307;53.868;11.680;2022-08-19T05:49:37;40.73;;;29.60;;
8538;SDS011;4307;53.868;11.680;2022-08-19T05:52:05;44.77;;;29.40;;
8538;SDS011;4307;53.868;11.680;2022-08-19T05:54:33;45.50;;;30.17;;
8538;SDS011;4307;53.868;11.680;2022-08-19T05:57:02;44.37;;;30.20;;
8538;SDS011;4307;53.868;11.680;2022-08-19T05:59:29;46.63;;;31.60;;
8538;SDS011;4307;53.868;11.680;2022-08-19T06:01:55;44.17;;;30.30;;
8538;SDS011;4307;53.868;11.680;2022-08-19T06:04:22;47.03;;;30.20;;
8538;SDS011;4307;53.868;11.680;2022-08-19T06:06:51;41.40;;;28.83;;
8538;SDS011;4307;53.868;11.680;2022-08-19T06:09:19;40.43;;;29.27;;
8538;SDS011;4307;53.868;11.680;2022-08-19T06:11:47;45.23;;;29.73;;
8538;SDS011;4307;53.868;11.680;2022-08-19T06:14:21;47.27;;;30.60;;
8538;SDS011;4307;53.868;11.680;2022-08-19T06:16:54;44.87;;;30.13;;
8538;SDS011;4307;53.868;11.680;2022-08-19T06:19:21;46.07;;;29.93;;
8538;SDS011;4307;53.868;11.680;2022-08-19T06:21:50;44.93;;;29.97;;
8538;SDS011;4307;53.868;11.680;2022-08-19T06:24:19;44.87;;;28.83;;
8538;SDS011;4307;53.868;11.680;2022-08-19T06:26:48;45.90;;;29.80;;
8538;SDS011;4307;53.868;11.680;2022-08-19T06:29:18;44.80;;;30.40;;
8538;SDS011;4307;53.868;11.680;2022-08-19T06:31:48;44.47;;;30.33;;
8538;SDS011;4307;53.868;11.680;2022-08-19T06:34:17;44.80;;;29.53;;
8538;SDS011;4307;53.868;11.680;2022-08-19T06:36:45;42.87;;;28.93;;
8538;SDS011;4307;53.868;11.680;2022-08-19T06:39:14;42.33;;;28.40;;
8538;SDS011;4307;53.868;11.680;2022-08-19T06:41:46;40.57;;;27.73;;
8538;SDS011;4307;53.868;11.680;2022-08-19T06:44:13;45.27;;;28.87;;
8538;SDS011;4307;53.868;11.680;2022-08-19T06:46:42;43.33;;;29.13;;
8538;SDS011;4307;53.868;11.680;2022-08-19T06:49:09;46.73;;;29.33;;
8538;SDS011;4307;53.868;11.680;2022-08-19T06:51:39;42.33;;;28.30;;
8538;SDS011;4307;53.868;11.680;2022-08-19T06:54:07;38.93;;;28.90;;
8538;SDS011;4307;53.868;11.680;2022-08-19T06:56:34;45.23;;;29.40;;
8538;SDS011;4307;53.868;11.680;2022-08-19T06:59:02;42.03;;;28.73;;
8538;SDS011;4307;53.868;11.680;2022-08-19T07:01:29;41.93;;;28.73;;
8538;SDS011;4307;53.868;11.680;2022-08-19T07:03:57;45.20;;;27.03;;
8538;SDS011;4307;53.868;11.680;2022-08-19T07:06:26;41.10;;;27.00;;
8538;SDS011;4307;53.868;11.680;2022-08-19T07:08:53;37.63;;;25.83;;
8538;SDS011;4307;53.868;11.680;2022-08-19T07:11:19;41.90;;;28.13;;
8538;SDS011;4307;53.868;11.680;2022-08-19T07:13:46;43.33;;;27.57;;
8538;SDS011;4307;53.868;11.680;2022-08-19T07:16:14;41.77;;;27.30;;
8538;SDS011;4307;53.868;11.680;2022-08-19T07:18:44;40.23;;;28.43;;
8538;SDS011;4307;53.868;11.680;2022-08-19T07:21:13;47.43;;;27.17;;
8538;SDS011;4307;53.868;11.680;2022-08-19T07:23:41;45.57;;;27.80;;
8538;SDS011;4307;53.868;11.680;2022-08-19T07:26:09;39.20;;;26.80;;
8538;SDS011;4307;53.868;11.680;2022-08-19T07:28:37;41.87;;;28.77;;
8538;SDS011;4307;53.868;11.680;2022-08-19T07:31:04;46.23;;;31.33;;
8538;SDS011;4307;53.868;11.680;2022-08-19T07:33:31;43.67;;;28.00;;
8538;SDS011;4307;53.868;11.680;2022-08-19T07:36:01;46.90;;;28.20;;
8538;SDS011;4307;53.868;11.680;2022-08-19T07:38:31;38.17;;;27.00;;
8538;SDS011;4307;53.868;11.680;2022-08-19T07:40:58;41.87;;;27.27;;
8538;SDS011;4307;53.868;11.680;2022-08-19T07:43:25;44.47;;;27.83;;
8538;SDS011;4307;53.868;11.680;2022-08-19T07:45:53;43.70;;;27.80;;
8538;SDS011;4307;53.868;11.680;2022-08-19T07:48:22;40.17;;;27.40;;
8538;SDS011;4307;53.868;11.680;2022-08-19T07:50:50;41.20;;;27.43;;
8538;SDS011;4307;53.868;11.680;2022-08-19T07:53:17;45.23;;;28.43;;
8538;SDS011;4307;53.868;11.680;2022-08-19T07:55:46;42.13;;;28.20;;
8538;SDS011;4307;53.868;11.680;2022-08-19T07:58:13;43.47;;;28.97;;
8538;SDS011;4307;53.868;11.680;2022-08-19T08:00:42;49.70;;;30.23;;
8538;SDS011;4307;53.868;11.680;2022-08-19T08:03:08;44.30;;;28.40;;
8538;SDS011;4307;53.868;11.680;2022-08-19T08:05:35;43.27;;;27.60;;
8538;SDS011;4307;53.868;11.680;2022-08-19T08:08:19;48.60;;;29.17;;
8538;SDS011;4307;53.868;11.680;2022-08-19T08:11:05;41.63;;;28.00;;
8538;SDS011;4307;53.868;11.680;2022-08-19T08:13:32;44.93;;;28.27;;
8538;SDS011;4307;53.868;11.680;2022-08-19T08:16:00;48.90;;;27.47;;
8538;SDS011;4307;53.868;11.680;2022-08-19T08:18:27;47.87;;;29.67;;
8538;SDS011;4307;53.868;11.680;2022-08-19T08:20:54;49.33;;;29.30;;
8538;SDS011;4307;53.868;11.680;2022-08-19T08:23:20;45.50;;;29.27;;
8538;SDS011;4307;53.868;11.680;2022-08-19T08:25:50;43.23;;;29.13;;
8538;SDS011;4307;53.868;11.680;2022-08-19T08:28:19;41.93;;;28.83;;
8538;SDS011;4307;53.868;11.680;2022-08-19T08:30:46;47.40;;;28.03;;
8538;SDS011;4307;53.868;11.680;2022-08-19T08:33:14;43.47;;;27.40;;
8538;SDS011;4307;53.868;11.680;2022-08-19T08:35:43;43.60;;;27.63;;
8538;SDS011;4307;53.868;11.680;2022-08-19T08:38:11;43.43;;;28.07;;
8538;SDS011;4307;53.868;11.680;2022-08-19T08:40:42;42.47;;;28.30;;
8538;SDS011;4307;53.868;11.680;2022-08-19T08:43:13;46.07;;;28.90;;
8538;SDS011;4307;53.868;11.680;2022-08-19T08:45:51;42.43;;;27.67;;
8538;SDS011;4307;53.868;11.680;2022-08-19T08:48:23;41.03;;;27.27;;
8538;SDS011;4307;53.868;11.680;2022-08-19T08:50:53;45.87;;;28.20;;
8538;SDS011;4307;53.868;11.680;2022-08-19T08:53:22;42.03;;;26.97;;
8538;SDS011;4307;53.868;11.680;2022-08-19T08:55:50;40.97;;;26.33;;
8538;SDS011;4307;53.868;11.680;2022-08-19T08:58:18;41.47;;;25.73;;
8538;SDS011;4307;53.868;11.680;2022-08-19T09:00:51;42.23;;;25.60;;
8538;SDS011;4307;53.868;11.680;2022-08-19T09:03:20;41.20;;;25.27;;
8538;SDS011;4307;53.868;11.680;2022-08-19T09:05:52;35.10;;;23.63;;
8538;SDS011;4307;53.868;11.680;2022-08-19T09:08:27;38.97;;;24.93;;
8538;SDS011;4307;53.868;11.680;2022-08-19T09:11:04;34.13;;;22.77;;
8538;SDS011;4307;53.868;11.680;2022-08-19T09:13:35;37.07;;;24.33;;
8538;SDS011;4307;53.868;11.680;2022-08-19T09:16:09;36.90;;;24.00;;
8538;SDS011;4307;53.868;11.680;2022-08-19T09:18:39;39.80;;;23.60;;
8538;SDS011;4307;53.868;11.680;2022-08-19T09:21:08;35.90;;;23.40;;
8538;SDS011;4307;53.868;11.680;2022-08-19T09:23:35;36.13;;;24.03;;
8538;SDS011;4307;53.868;11.680;2022-08-19T09:26:05;38.50;;;23.80;;
8538;SDS011;4307;53.868;11.680;2022-08-19T09:28:35;38.20;;;23.53;;
8538;SDS011;4307;53.868;11.680;2022-08-19T09:31:02;36.77;;;23.23;;
8538;SDS011;4307;53.868;11.680;2022-08-19T09:33:29;35.77;;;23.40;;
8538;SDS011;4307;53.868;11.680;2022-08-19T09:36:05;37.03;;;22.83;;
8538;SDS011;4307;53.868;11.680;2022-08-19T09:38:34;34.27;;;22.77;;
8538;SDS011;4307;53.868;11.680;2022-08-19T09:41:03;37.97;;;23.37;;
8538;SDS011;4307;53.868;11.680;2022-08-19T09:43:30;37.33;;;23.53;;
8538;SDS011;4307;53.868;11.680;2022-08-19T09:45:59;38.40;;;22.80;;
8538;SDS011;4307;53.868;11.680;2022-08-19T09:48:26;36.53;;;23.40;;
8538;SDS011;4307;53.868;11.680;2022-08-19T09:50:53;38.63;;;23.90;;
8538;SDS011;4307;53.868;11.680;2022-08-19T09:53:19;36.50;;;23.53;;
8538;SDS011;4307;53.868;11.680;2022-08-19T09:55:47;34.93;;;23.13;;
8538;SDS011;4307;53.868;11.680;2022-08-19T09:58:15;36.63;;;24.77;;
8538;SDS011;4307;53.868;11.680;2022-08-19T10:00:41;35.83;;;24.30;;
8538;SDS011;4307;53.868;11.680;2022-08-19T10:03:09;35.77;;;23.50;;
8538;SDS011;4307;53.868;11.680;2022-08-19T10:05:36;36.97;;;23.40;;
8538;SDS011;4307;53.868;11.680;2022-08-19T10:08:14;35.50;;;23.93;;
8538;SDS011;4307;53.868;11.680;2022-08-19T10:10:43;36.27;;;23.93;;
8538;SDS011;4307;53.868;11.680;2022-08-19T10:13:10;35.67;;;24.47;;
8538;SDS011;4307;53.868;11.680;2022-08-19T10:15:37;36.30;;;23.70;;
8538;SDS011;4307;53.868;11.680;2022-08-19T10:18:05;37.30;;;25.07;;
8538;SDS011;4307;53.868;11.680;2022-08-19T10:20:33;37.07;;;24.77;;
8538;SDS011;4307;53.868;11.680;2022-08-19T10:23:02;39.27;;;25.00;;
8538;SDS011;4307;53.868;11.680;2022-08-19T10:25:28;36.03;;;24.03;;
8538;SDS011;4307;53.868;11.680;2022-08-19T10:27:55;36.03;;;24.60;;
8538;SDS011;4307;53.868;11.680;2022-08-19T10:30:22;42.57;;;26.73;;
8538;SDS011;4307;53.868;11.680;2022-08-19T10:32:49;39.30;;;25.47;;
8538;SDS011;4307;53.868;11.680;2022-08-19T10:35:15;38.33;;;25.10;;
8538;SDS011;4307;53.868;11.680;2022-08-19T10:37:43;36.53;;;24.70;;
8538;SDS011;4307;53.868;11.680;2022-08-19T10:40:10;34.37;;;24.53;;
8538;SDS011;4307;53.868;11.680;2022-08-19T10:42:37;32.90;;;23.43;;
8538;SDS011;4307;53.868;11.680;2022-08-19T10:45:04;36.50;;;23.10;;
8538;SDS011;4307;53.868;11.680;2022-08-19T10:47:33;34.03;;;24.33;;
8538;SDS011;4307;53.868;11.680;2022-08-19T10:50:00;35.07;;;25.07;;
8538;SDS011;4307;53.868;11.680;2022-08-19T10:52:46;31.57;;;22.63;;
8538;SDS011;4307;53.868;11.680;2022-08-19T10:55:14;30.80;;;23.13;;
8538;SDS011;4307;53.868;11.680;2022-08-19T10:57:59;33.80;;;23.17;;
8538;SDS011;4307;53.868;11.680;2022-08-19T11:00:26;35.10;;;23.93;;
8538;SDS011;4307;53.868;11.680;2022-08-19T11:02:53;32.70;;;23.93;;
8538;SDS011;4307;53.868;11.680;2022-08-19T11:05:20;38.70;;;24.03;;
8538;SDS011;4307;53.868;11.680;2022-08-19T11:07:48;37.73;;;26.63;;
8538;SDS011;4307;53.868;11.680;2022-08-19T11:10:15;31.30;;;23.43;;
8538;SDS011;4307;53.868;11.680;2022-08-19T11:12:43;34.00;;;24.57;;
8538;SDS011;4307;53.868;11.680;2022-08-19T11:15:11;35.87;;;25.43;;
8538;SDS011;4307;53.868;11.680;2022-08-19T11:17:38;29.47;;;23.03;;
8538;SDS011;4307;53.868;11.680;2022-08-19T11:20:08;31.70;;;24.30;;
8538;SDS011;4307;53.868;11.680;2022-08-19T11:22:35;33.10;;;24.63;;
8538;SDS011;4307;53.868;11.680;2022-08-19T11:25:04;35.40;;;25.13;;
8538;SDS011;4307;53.868;11.680;2022-08-19T11:27:31;33.40;;;24.07;;
8538;SDS011;4307;53.868;11.680;2022-08-19T11:29:58;35.53;;;25.70;;
8538;SDS011;4307;53.868;11.680;2022-08-19T11:32:25;34.33;;;25.30;;
8538;SDS011;4307;53.868;11.680;2022-08-19T11:34:52;35.23;;;26.23;;
8538;SDS011;4307;53.868;11.680;2022-08-19T11:37:19;36.70;;;24.93;;
8538;SDS011;4307;53.868;11.680;2022-08-19T11:39:46;29.23;;;25.47;;
8538;SDS011;4307;53.868;11.680;2022-08-19T11:42:14;36.63;;;26.87;;
8538;SDS011;4307;53.868;11.680;2022-08-19T11:44:58;36.60;;;26.43;;
8538;SDS011;4307;53.868;11.680;2022-08-19T11:47:24;32.03;;;25.37;;
8538;SDS011;4307;53.868;11.680;2022-08-19T11:49:51;33.37;;;25.00;;
8538;SDS011;4307;53.868;11.680;2022-08-19T11:52:18;32.67;;;25.30;;
8538;SDS011;4307;53.868;11.680;2022-08-19T11:54:44;32.53;;;23.60;;
8538;SDS011;4307;53.868;11.680;2022-08-19T11:57:11;32.13;;;24.73;;
8538;SDS011;4307;53.868;11.680;2022-08-19T11:59:42;33.60;;;23.80;;
8538;SDS011;4307;53.868;11.680;2022-08-19T12:02:14;29.80;;;22.63;;
8538;SDS011;4307;53.868;11.680;2022-08-19T12:04:41;30.63;;;23.07;;
8538;SDS011;4307;53.868;11.680;2022-08-19T12:07:07;29.67;;;23.73;;
8538;SDS011;4307;53.868;11.680;2022-08-19T12:09:34;30.23;;;23.40;;
8538;SDS011;4307;53.868;11.680;2022-08-19T12:12:01;32.60;;;24.37;;
8538;SDS011;4307;53.868;11.680;2022-08-19T12:14:28;32.03;;;24.23;;
8538;SDS011;4307;53.868;11.680;2022-08-19T12:16:57;28.73;;;23.00;;
8538;SDS011;4307;53.868;11.680;2022-08-19T12:19:24;30.47;;;22.50;;
8538;SDS011;4307;53.868;11.680;2022-08-19T12:21:51;28.40;;;22.53;;
8538;SDS011;4307;53.868;11.680;2022-08-19T12:24:20;30.97;;;23.57;;
8538;SDS011;4307;53.868;11.680;2022-08-19T12:26:48;31.90;;;23.40;;
8538;SDS011;4307;53.868;11.680;2022-08-19T12:29:15;31.63;;;23.53;;
8538;SDS011;4307;53.868;11.680;2022-08-19T12:31:41;27.47;;;22.40;;
8538;SDS011;4307;53.868;11.680;2022-08-19T12:34:09;28.50;;;22.43;;
8538;SDS011;4307;53.868;11.680;2022-08-19T12:36:37;33.47;;;22.93;;
8538;SDS011;4307;53.868;11.680;2022-08-19T12:39:04;28.70;;;22.20;;
8538;SDS011;4307;53.868;11.680;2022-08-19T12:41:31;30.23;;;24.03;;
8538;SDS011;4307;53.868;11.680;2022-08-19T12:43:58;29.77;;;23.90;;
8538;SDS011;4307;53.868;11.680;2022-08-19T12:46:24;27.47;;;23.57;;
8538;SDS011;4307;53.868;11.680;2022-08-19T12:48:52;29.00;;;23.90;;
8538;SDS011;4307;53.868;11.680;2022-08-19T12:51:20;30.07;;;23.53;;
8538;SDS011;4307;53.868;11.680;2022-08-19T12:53:47;25.33;;;21.33;;
8538;SDS011;4307;53.868;11.680;2022-08-19T12:56:14;25.00;;;22.17;;
8538;SDS011;4307;53.868;11.680;2022-08-19T12:58:42;29.10;;;23.60;;
8538;SDS011;4307;53.868;11.680;2022-08-19T13:01:09;27.57;;;22.57;;
8538;SDS011;4307;53.868;11.680;2022-08-19T13:03:38;28.67;;;23.40;;
8538;SDS011;4307;53.868;11.680;2022-08-19T13:06:06;31.07;;;23.57;;
8538;SDS011;4307;53.868;11.680;2022-08-19T13:08:34;32.07;;;23.80;;
8538;SDS011;4307;53.868;11.680;2022-08-19T13:11:07;30.33;;;21.83;;
8538;SDS011;4307;53.868;11.680;2022-08-19T13:13:36;32.13;;;23.73;;
8538;SDS011;4307;53.868;11.680;2022-08-19T13:16:05;28.33;;;22.23;;
8538;SDS011;4307;53.868;11.680;2022-08-19T13:18:33;30.60;;;23.33;;
8538;SDS011;4307;53.868;11.680;2022-08-19T13:21:01;30.77;;;24.30;;
8538;SDS011;4307;53.868;11.680;2022-08-19T13:23:29;31.07;;;23.50;;
8538;SDS011;4307;53.868;11.680;2022-08-19T13:25:58;28.37;;;22.03;;
8538;SDS011;4307;53.868;11.680;2022-08-19T13:28:27;29.77;;;22.30;;
8538;SDS011;4307;53.868;11.680;2022-08-19T13:31:14;27.27;;;22.37;;
8538;SDS011;4307;53.868;11.680;2022-08-19T13:34:00;26.47;;;22.60;;
8538;SDS011;4307;53.868;11.680;2022-08-19T13:36:27;30.77;;;22.83;;
8538;SDS011;4307;53.868;11.680;2022-08-19T13:38:54;31.07;;;23.10;;
8538;SDS011;4307;53.868;11.680;2022-08-19T13:41:23;26.80;;;23.17;;
8538;SDS011;4307;53.868;11.680;2022-08-19T13:43:50;24.23;;;21.00;;
8538;SDS011;4307;53.868;11.680;2022-08-19T13:46:17;31.47;;;22.97;;
8538;SDS011;4307;53.868;11.680;2022-08-19T13:48:45;29.00;;;22.83;;
8538;SDS011;4307;53.868;11.680;2022-08-19T13:51:12;27.23;;;19.83;;
8538;SDS011;4307;53.868;11.680;2022-08-19T13:53:41;29.00;;;20.87;;
8538;SDS011;4307;53.868;11.680;2022-08-19T13:56:09;23.00;;;18.40;;
8538;SDS011;4307;53.868;11.680;2022-08-19T13:58:39;28.60;;;20.63;;
8538;SDS011;4307;53.868;11.680;2022-08-19T14:01:05;21.07;;;17.27;;
8538;SDS011;4307;53.868;11.680;2022-08-19T14:03:33;24.13;;;18.90;;
8538;SDS011;4307;53.868;11.680;2022-08-19T14:06:01;21.10;;;17.63;;
8538;SDS011;4307;53.868;11.680;2022-08-19T14:08:28;24.87;;;17.63;;
8538;SDS011;4307;53.868;11.680;2022-08-19T14:10:57;22.80;;;17.63;;
8538;SDS011;4307;53.868;11.680;2022-08-19T14:13:24;21.73;;;17.87;;
8538;SDS011;4307;53.868;11.680;2022-08-19T14:15:52;21.30;;;16.27;;
8538;SDS011;4307;53.868;11.680;2022-08-19T14:18:19;17.03;;;15.20;;
8538;SDS011;4307;53.868;11.680;2022-08-19T14:20:46;20.47;;;15.97;;
8538;SDS011;4307;53.868;11.680;2022-08-19T14:23:14;20.80;;;17.17;;
8538;SDS011;4307;53.868;11.680;2022-08-19T14:25:41;19.13;;;16.23;;
8538;SDS011;4307;53.868;11.680;2022-08-19T14:28:09;18.97;;;16.77;;
8538;SDS011;4307;53.868;11.680;2022-08-19T14:30:36;22.37;;;16.67;;
8538;SDS011;4307;53.868;11.680;2022-08-19T14:33:05;22.37;;;17.10;;
8538;SDS011;4307;53.868;11.680;2022-08-19T14:35:33;22.57;;;17.67;;
8538;SDS011;4307;53.868;11.680;2022-08-19T14:38:00;23.33;;;17.23;;
8538;SDS011;4307;53.868;11.680;2022-08-19T14:40:28;21.93;;;17.30;;